createdAt,value
2018-07-13T00:00:02.747Z,15.8
2018-07-13T00:05:02.946Z,15.8
2018-07-13T00:10:02.425Z,15.6
2018-07-13T00:15:02.923Z,15.6
2018-07-13T00:20:02.413Z,15.5
2018-07-13T00:25:02.803Z,15.5
2018-07-13T00:30:03.216Z,15.5
2018-07-13T00:35:02.684Z,15.3
2018-07-13T00:40:03.162Z,15.1
2018-07-13T00:45:02.564Z,15.1
2018-07-13T00:50:03.075Z,15.1
2018-07-13T00:55:02.510Z,15.1
2018-07-13T01:00:02.984Z,15.1
2018-07-13T01:05:02.428Z,15.0
2018-07-13T01:10:02.974Z,15.1
2018-07-13T01:15:02.402Z,15.0
2018-07-13T01:20:02.980Z,15.0
2018-07-13T01:25:02.646Z,14.8
2018-07-13T01:30:03.139Z,14.8
2018-07-13T01:35:02.608Z,14.6
2018-07-13T01:40:03.106Z,14.6
2018-07-13T01:45:02.540Z,14.6
2018-07-13T01:50:03.067Z,14.6
2018-07-13T01:55:02.444Z,14.5
2018-07-13T02:00:02.904Z,14.5
2018-07-13T02:05:02.289Z,14.5
2018-07-13T02:10:02.821Z,14.5
2018-07-13T02:15:02.298Z,14.5
2018-07-13T02:20:02.849Z,14.3
2018-07-13T02:25:02.369Z,14.3
2018-07-13T02:30:02.904Z,14.3
2018-07-13T02:35:02.368Z,14.3
2018-07-13T02:40:02.885Z,14.1
2018-07-13T02:45:02.361Z,14.1
2018-07-13T02:50:03.044Z,14.0
2018-07-13T02:55:02.504Z,14.0
2018-07-13T03:00:03.402Z,14.0
2018-07-13T03:05:02.839Z,14.0
2018-07-13T03:10:02.416Z,14.0
2018-07-13T03:15:02.863Z,14.0
2018-07-13T03:20:02.423Z,14.0
2018-07-13T03:25:03.083Z,14.0
2018-07-13T03:30:02.495Z,14.0
2018-07-13T03:35:02.892Z,13.8
2018-07-13T03:40:02.319Z,13.6
2018-07-13T03:45:02.787Z,13.8
2018-07-13T03:50:03.210Z,14.0
2018-07-13T03:55:02.667Z,13.8
2018-07-13T04:00:03.221Z,13.8
2018-07-13T04:05:02.718Z,13.6
2018-07-13T04:10:03.264Z,13.6
2018-07-13T04:15:02.656Z,13.6
2018-07-13T04:20:03.055Z,13.6
2018-07-13T04:25:02.597Z,13.6
2018-07-13T04:35:03.187Z,13.6
2018-07-13T04:40:02.701Z,13.6
2018-07-13T04:45:03.243Z,13.6
2018-07-13T04:50:02.628Z,14.0
2018-07-13T04:55:03.301Z,14.1
2018-07-13T05:00:02.781Z,14.3
2018-07-13T05:05:03.191Z,14.3
2018-07-13T05:10:02.610Z,14.5
2018-07-13T05:15:03.136Z,14.6
2018-07-13T05:20:02.590Z,14.8
2018-07-13T05:25:03.092Z,15.1
2018-07-13T05:30:02.596Z,15.3
2018-07-13T05:35:03.139Z,15.3
2018-07-13T05:40:02.813Z,15.5
2018-07-13T05:45:02.417Z,15.6
2018-07-13T05:50:02.834Z,15.5
2018-07-13T05:55:02.263Z,15.6
2018-07-13T06:00:02.574Z,15.8
2018-07-13T06:05:02.651Z,16.2
2018-07-13T06:10:03.202Z,16.3
2018-07-13T06:15:02.677Z,16.7
2018-07-13T06:20:02.580Z,16.7
2018-07-13T06:25:03.082Z,16.7
2018-07-13T06:30:02.561Z,16.7
2018-07-13T06:35:03.118Z,17.0
2018-07-13T06:40:02.569Z,16.7
2018-07-13T06:45:03.091Z,17.1
2018-07-13T06:50:02.657Z,17.1
2018-07-13T06:55:03.095Z,17.0
2018-07-13T07:00:02.605Z,17.3
2018-07-13T07:05:03.106Z,17.7
2018-07-13T07:10:02.561Z,17.8
2018-07-13T07:15:02.903Z,18.1
2018-07-13T07:20:02.471Z,18.2
2018-07-13T07:25:02.931Z,17.7
2018-07-13T07:30:02.667Z,17.7
2018-07-13T07:35:03.233Z,18.2
2018-07-13T07:40:02.821Z,18.6
2018-07-13T07:45:02.347Z,18.6
2018-07-13T07:50:02.926Z,17.8
2018-07-13T07:55:02.959Z,18.5
2018-07-13T08:00:02.439Z,19.2
2018-07-13T08:05:02.973Z,19.0
2018-07-13T08:10:02.454Z,20.7
2018-07-13T08:15:02.878Z,20.0
2018-07-13T08:20:02.277Z,21.0
2018-07-13T08:25:02.877Z,22.1
2018-07-13T08:30:02.311Z,22.1
2018-07-13T08:35:02.836Z,22.1
2018-07-13T08:40:02.575Z,23.0
2018-07-13T08:45:03.069Z,22.6
2018-07-13T08:50:02.668Z,23.3
2018-07-13T08:55:03.325Z,23.2
2018-07-13T09:00:03.184Z,25.0
2018-07-13T09:05:02.742Z,23.3
2018-07-13T09:10:02.386Z,23.1
2018-07-13T09:15:02.857Z,23.7
2018-07-13T09:20:02.268Z,24.2
2018-07-13T09:25:02.692Z,25.6
2018-07-13T09:30:03.108Z,24.3
2018-07-13T09:35:02.629Z,24.5
2018-07-13T09:40:03.093Z,24.3
2018-07-13T09:45:02.525Z,24.6
2018-07-13T09:50:03.045Z,27.2
2018-07-13T09:55:02.481Z,26.5
2018-07-13T10:00:02.954Z,26.2
2018-07-13T10:05:02.498Z,25.7
2018-07-13T10:10:03.066Z,27.3
2018-07-13T10:15:02.548Z,27.8
2018-07-13T10:20:03.060Z,27.3
2018-07-13T10:25:02.548Z,27.2
2018-07-13T10:30:02.970Z,27.2
2018-07-13T10:35:02.460Z,26.5
2018-07-13T10:40:02.993Z,27.3
2018-07-13T10:45:02.431Z,27.8
2018-07-13T10:50:02.929Z,27.2
2018-07-13T10:55:02.491Z,27.2
2018-07-13T11:00:02.986Z,28.0
2018-07-13T11:05:02.421Z,28.3
2018-07-13T11:10:02.979Z,29.0
2018-07-13T11:15:02.471Z,28.7
2018-07-13T11:20:02.989Z,29.1
2018-07-13T11:25:02.442Z,27.7
2018-07-13T11:30:02.919Z,28.0
2018-07-13T11:35:02.432Z,27.8
2018-07-13T11:40:02.971Z,29.6
2018-07-13T11:45:02.445Z,29.7
2018-07-13T11:50:02.910Z,29.6
2018-07-13T11:55:02.324Z,28.2
2018-07-13T12:00:02.748Z,30.0
2018-07-13T12:05:02.290Z,29.7
2018-07-13T12:10:02.826Z,30.5
2018-07-13T12:15:02.284Z,30.1
2018-07-13T12:20:02.776Z,29.7
2018-07-13T12:25:02.257Z,30.3
2018-07-13T12:30:02.748Z,29.7
2018-07-13T12:35:03.243Z,29.7
2018-07-13T12:40:02.735Z,29.7
2018-07-13T12:45:03.218Z,29.7
2018-07-13T12:50:02.912Z,31.3
2018-07-13T12:55:02.453Z,30.8
2018-07-13T13:00:02.833Z,28.6
2018-07-13T13:05:02.317Z,30.2
2018-07-13T13:10:02.798Z,30.8
2018-07-13T13:15:02.262Z,30.8
2018-07-13T13:20:02.768Z,29.5
2018-07-13T13:25:03.394Z,30.1
2018-07-13T13:30:02.828Z,30.8
2018-07-13T13:35:02.368Z,30.8
2018-07-13T13:40:02.965Z,31.1
2018-07-13T13:45:02.359Z,31.1
2018-07-13T13:50:02.835Z,30.8
2018-07-13T13:55:03.242Z,31.7
2018-07-13T14:00:02.662Z,32.0
2018-07-13T14:05:03.195Z,32.2
2018-07-13T14:10:02.900Z,32.5
2018-07-13T14:15:02.329Z,31.2
2018-07-13T14:20:02.734Z,31.7
2018-07-13T14:25:03.183Z,33.5
2018-07-13T14:30:02.632Z,32.7
2018-07-13T14:35:03.084Z,32.2
2018-07-13T14:40:02.624Z,32.2
2018-07-13T14:45:03.146Z,32.7
2018-07-13T14:50:02.582Z,33.0
2018-07-13T14:55:03.046Z,33.0
2018-07-13T15:00:02.470Z,31.8
2018-07-13T15:05:02.962Z,31.6
2018-07-13T15:10:02.855Z,32.0
2018-07-13T15:15:02.461Z,32.0
2018-07-13T15:20:02.944Z,32.7
2018-07-13T15:25:02.401Z,29.6
2018-07-13T15:30:02.933Z,30.6
2018-07-13T15:35:02.356Z,31.7
2018-07-13T15:40:02.870Z,29.6
2018-07-13T15:45:02.313Z,30.1
2018-07-13T15:50:02.772Z,28.2
2018-07-13T15:55:02.408Z,27.7
2018-07-13T16:00:02.944Z,27.8
2018-07-13T16:05:02.504Z,28.5
2018-07-13T16:10:02.993Z,27.3
2018-07-13T16:15:02.467Z,27.1
2018-07-13T16:20:03.049Z,30.1
2018-07-13T16:25:02.433Z,28.5
2018-07-13T16:30:02.878Z,27.2
2018-07-13T16:35:02.381Z,27.1
2018-07-13T16:40:02.876Z,26.7
2018-07-13T16:45:02.396Z,26.7
2018-07-13T16:50:03.206Z,26.7
2018-07-13T16:55:02.715Z,28.2
2018-07-13T17:00:03.189Z,28.3
2018-07-13T17:05:02.627Z,29.2
2018-07-13T17:10:02.258Z,29.0
2018-07-13T17:15:02.803Z,29.2
2018-07-13T17:20:02.279Z,30.0
2018-07-13T17:25:02.774Z,29.2
2018-07-13T17:30:03.193Z,27.7
2018-07-13T17:35:02.654Z,26.5
2018-07-13T17:40:02.367Z,26.1
2018-07-13T17:45:02.771Z,25.8
2018-07-13T17:50:03.212Z,25.8
2018-07-13T17:55:02.691Z,25.7
2018-07-13T18:00:03.227Z,25.5
2018-07-13T18:05:02.620Z,25.3
2018-07-13T18:10:03.105Z,25.3
2018-07-13T18:15:02.590Z,25.1
2018-07-13T18:20:02.695Z,25.1
2018-07-13T18:25:03.222Z,25.1
2018-07-13T18:30:02.652Z,25.1
2018-07-13T18:35:03.177Z,25.2
2018-07-13T18:40:02.653Z,25.6
2018-07-13T18:45:03.103Z,25.2
2018-07-13T18:50:02.680Z,25.0
2018-07-13T18:55:03.220Z,25.0
2018-07-13T19:00:02.643Z,24.7
2018-07-13T19:05:03.137Z,24.6
2018-07-13T19:10:02.605Z,24.5
2018-07-13T19:15:03.118Z,24.2
2018-07-13T19:20:02.548Z,23.8
2018-07-13T19:25:03.013Z,23.6
2018-07-13T19:30:02.490Z,23.2
2018-07-13T19:35:02.968Z,23.0
2018-07-13T19:40:02.488Z,22.7
2018-07-13T19:45:02.994Z,22.6
2018-07-13T19:50:02.510Z,22.2
2018-07-13T19:55:02.974Z,22.0
2018-07-13T20:00:02.700Z,21.8
2018-07-13T20:05:03.177Z,21.6
2018-07-13T20:10:02.654Z,21.5
2018-07-13T20:15:03.113Z,21.2
2018-07-13T20:20:02.603Z,21.2
2018-07-13T20:25:03.227Z,21.0
2018-07-13T20:30:02.646Z,20.8
2018-07-13T20:35:03.070Z,20.7
2018-07-13T20:40:02.579Z,20.6
2018-07-13T20:45:03.260Z,20.6
2018-07-13T20:50:02.714Z,20.2
2018-07-13T20:55:03.178Z,20.2
2018-07-13T21:00:02.645Z,20.0
2018-07-13T21:05:03.161Z,20.0
2018-07-13T21:10:02.625Z,19.7
2018-07-13T21:15:03.059Z,19.7
2018-07-13T21:20:02.586Z,19.5
2018-07-13T21:25:02.378Z,19.7
2018-07-13T21:30:03.227Z,19.5
2018-07-13T21:35:02.717Z,19.3
2018-07-13T21:40:03.199Z,19.3
2018-07-13T21:45:02.645Z,19.2
2018-07-13T21:50:03.082Z,19.1
2018-07-13T21:55:02.554Z,19.0
2018-07-13T22:00:02.959Z,18.8
2018-07-13T22:05:02.376Z,18.8
2018-07-13T22:10:02.886Z,18.7
2018-07-13T22:15:02.337Z,18.6
2018-07-13T22:20:02.886Z,18.5
2018-07-13T22:25:02.406Z,18.5
2018-07-13T22:30:02.889Z,18.2
2018-07-13T22:35:02.347Z,18.2
2018-07-13T22:40:02.805Z,18.2
2018-07-13T22:45:03.161Z,17.8
2018-07-13T22:50:02.631Z,17.8
2018-07-13T22:55:03.097Z,17.7
2018-07-13T23:00:02.792Z,17.7
2018-07-13T23:05:02.407Z,17.5
2018-07-13T23:10:02.862Z,17.3
2018-07-13T23:15:02.334Z,17.2
2018-07-13T23:20:02.768Z,17.2
2018-07-13T23:25:03.263Z,17.1
2018-07-13T23:30:02.692Z,17.1
2018-07-13T23:35:03.137Z,17.0
2018-07-13T23:40:02.606Z,16.7
2018-07-13T23:45:03.154Z,16.7
2018-07-13T23:50:02.604Z,16.7
2018-07-13T23:55:03.072Z,16.6
